Aérodrome :
LOGIN :

S'inscrire | Disclaimer

   EN    FR    IT 

 










Légende :    VFR   VFR Marginal   IFR   IFR Intensif   IFR Très Intensif
Visi : 
Plafond : 
>= 8 km
>= 3000ft
5 à 8 km
1000 à 3000 ft
1500m à 5 km
500 à 1000 ft
800 à 1500m
200 à 500 ft
< 800m
< 200 ft
Symboles :   Orages  Brouillard  Fortes neiges  Fortes précipitations  Vent > 20 kt
SIGMETs :   Divers  Orages  Givrage  Turbulence  Onde Orograph.  Cendres Volcan.







- Altitude de l'aérodrome : 117 ft
- Code IATA : NWI
- Voir les cartes d'approche


EGSH - Norwich

DERNIER METAR :
  • 222120Z 36008KT 330V030 8000 BKN003 10/09 Q1021 TEMPO BKN005

METARs EXPIRÉS :
  • 222050Z 36007KT 320V040 8000 BKN006 11/09 Q1021 NOSIG
  • 222020Z 36009KT 320V030 8000 BKN006 11/10 Q1020 NOSIG
  • 221950Z 36011KT 320V020 8000 BKN006 11/10 Q1020 NOSIG
  • 221920Z 36011KT 320V030 9999 BKN007 OVC011 12/10 Q1020
  • 221850Z 35008KT 310V030 9999 BKN011 12/10 Q1020 BECMG BKN008

TAF AMD TAF EGSH
Valide du 22 à 21h jusqu'au 23 à 00h UTC


222102Z 2221/2224 01012KT 8000 BKN006
PROB30 2221/2224 BKN003
ATIS : +44 1603 420 640
Pas de NOTAMs connus pour ce terrain.



MET'MAP, la Météo Aéronautique d'un coup d'oeil ! - Copyright ORBIFLY Décembre 2007 - Disclaimer

ORBIFLY MET'MAP TEAM :

Programmation & Développement : Alexandra Zaïnal
Conception & Développement : Baudouin d'Aumeries
Co-Programmation & Développement : Marc-Olivier Méhu
Soutien technique & logistique : Manuel Goepfert

Contact : metmap@orbifly.com




SOURCES & CREDITS :

   NOAA